Time;durP1;ratioP1;P1;durP2;ratioP2;P2;SDS_P1;SDS_P2;PMS_P1;PMS_P2;Temp;Humidity;BMP_temperature;BMP_pressure;BME280_temperature;BME280_humidity;BME280_pressure;Samples;Min_cycle;Max_cycle;Signal;HPM_P1;HPM_P2
2022/03/19 00:00:45;;;;;;;113.03;57.55;;;;;;;7.07;63.42;101340.75;5200985;28;20057;-67
2022/03/19 00:03:35;;;;;;;114.60;57.92;;;;;;;7.18;63.72;101328.91;5202312;28;20045;-67
2022/03/19 00:06:25;;;;;;;106.70;56.50;;;;;;;7.43;61.90;101329.56;5201505;28;20104;-67
2022/03/19 00:09:16;;;;;;;121.05;59.30;;;;;;;7.06;63.10;101328.50;5199710;28;20049;-68
2022/03/19 00:12:08;;;;;;;115.78;57.88;;;;;;;7.13;63.23;101333.53;5202124;28;20081;-67
2022/03/19 00:14:58;;;;;;;110.93;56.63;;;;;;;7.34;62.50;101331.75;5201248;28;20128;-68
2022/03/19 00:17:48;;;;;;;109.68;56.63;;;;;;;7.09;63.00;101330.16;5201715;28;20534;-67
2022/03/19 00:20:38;;;;;;;111.43;57.05;;;;;;;7.07;63.64;101332.00;5201726;28;20546;-67
2022/03/19 00:23:28;;;;;;;113.47;56.40;;;;;;;6.81;63.08;101326.00;5201292;28;21014;-67
2022/03/19 00:26:19;;;;;;;124.13;58.47;;;;;;;6.99;63.01;101326.19;5201497;28;20740;-67
2022/03/19 00:29:09;;;;;;;112.13;57.22;;;;;;;7.10;62.89;101323.94;5200824;28;20052;-67
2022/03/19 00:31:59;;;;;;;107.38;55.50;;;;;;;7.30;61.64;101320.47;5200430;28;20093;-67
2022/03/19 00:34:50;;;;;;;113.30;54.88;;;;;;;7.05;62.28;101308.34;5201695;28;20055;-67
2022/03/19 00:37:50;;;;;;;112.38;56.30;;;;;;;7.25;61.66;101317.16;5201149;28;20061;-67
2022/03/19 00:40:41;;;;;;;119.70;57.55;;;;;;;7.35;61.28;101314.97;5201318;28;20761;-68
2022/03/19 00:43:31;;;;;;;111.32;54.28;;;;;;;7.51;60.77;101303.69;5199748;28;20703;-68
2022/03/19 00:46:21;;;;;;;118.72;56.55;;;;;;;7.47;59.97;101302.09;5201057;28;20057;-68
2022/03/19 00:49:11;;;;;;;114.18;58.75;;;;;;;7.33;61.26;101311.56;5201587;28;20432;-68
2022/03/19 00:52:01;;;;;;;118.30;56.53;;;;;;;7.41;60.88;101312.94;5200953;28;20064;-67
2022/03/19 00:54:52;;;;;;;108.60;55.53;;;;;;;7.25;61.44;101303.97;5201240;28;20087;-68
2022/03/19 00:57:45;;;;;;;106.90;54.80;;;;;;;7.26;61.24;101310.97;5200206;28;20060;-67
2022/03/19 01:00:35;;;;;;;108.50;55.33;;;;;;;7.41;60.11;101317.34;5201095;28;20431;-67
2022/03/19 01:03:26;;;;;;;110.90;54.95;;;;;;;6.97;61.15;101312.19;5202519;28;20045;-68
2022/03/19 01:06:16;;;;;;;101.88;53.72;;;;;;;6.83;61.64;101310.13;5198821;28;20136;-68
2022/03/19 01:09:07;;;;;;;114.43;54.88;;;;;;;6.75;62.00;101314.84;5201425;28;20056;-67
2022/03/19 01:11:57;;;;;;;110.00;54.70;;;;;;;6.75;62.49;101310.44;5197650;28;20063;-67
2022/03/19 01:14:46;;;;;;;109.00;53.13;;;;;;;6.84;61.42;101298.66;5202468;28;20155;-68
2022/03/19 01:17:37;;;;;;;103.30;53.17;;;;;;;6.47;62.36;101297.53;5202533;28;20534;-68
2022/03/19 01:20:27;;;;;;;109.63;53.83;;;;;;;6.48;62.29;101298.38;5201577;28;20129;-67
2022/03/19 01:23:17;;;;;;;109.60;54.97;;;;;;;6.89;61.13;101303.72;5202787;28;20475;-67
2022/03/19 01:26:07;;;;;;;113.07;55.92;;;;;;;6.76;62.04;101295.50;5202093;28;20056;-68
2022/03/19 01:28:58;;;;;;;110.00;54.40;;;;;;;6.65;61.83;101295.91;5202526;28;20057;-68
2022/03/19 01:31:48;;;;;;;113.82;55.03;;;;;;;6.79;60.88;101283.03;5202239;28;20049;-67
2022/03/19 01:34:38;;;;;;;111.30;54.55;;;;;;;6.55;61.85;101289.31;5197952;28;20512;-67
2022/03/19 01:37:28;;;;;;;107.18;55.67;;;;;;;6.61;61.87;101296.09;5202420;28;20423;-67
2022/03/19 01:40:20;;;;;;;112.18;55.97;;;;;;;6.69;61.88;101286.09;5202208;28;20092;-67
2022/03/19 01:43:10;;;;;;;112.97;55.17;;;;;;;6.56;62.59;101265.53;5198570;28;20072;-67
2022/03/19 01:46:00;;;;;;;115.25;54.83;;;;;;;6.59;61.87;101281.22;5201000;28;20076;-68
2022/03/19 01:48:50;;;;;;;108.82;54.45;;;;;;;6.69;62.26;101284.34;5201637;28;20126;-67
2022/03/19 01:51:40;;;;;;;104.15;53.70;;;;;;;6.64;61.71;101288.09;5202314;28;20518;-67
2022/03/19 01:54:34;;;;;;;104.93;54.33;;;;;;;6.47;61.31;101279.06;5202104;28;20052;-68
2022/03/19 01:57:28;;;;;;;110.22;54.10;;;;;;;6.46;62.58;101287.91;5202091;28;20065;-67
2022/03/19 02:00:21;;;;;;;107.65;54.33;;;;;;;6.46;61.84;101285.28;5201763;28;20060;-67
2022/03/19 02:03:12;;;;;;;83.17;41.63;;;;;;;6.44;62.32;101281.84;5201843;28;20061;-68
2022/03/19 02:06:04;;;;;;;108.72;53.90;;;;;;;6.32;61.66;101284.94;5196941;28;20060;-68
2022/03/19 02:08:54;;;;;;;111.13;54.90;;;;;;;6.23;62.15;101286.19;5202515;28;20061;-67
2022/03/19 02:11:44;;;;;;;112.72;54.42;;;;;;;6.51;61.65;101283.28;5202112;28;20067;-67
2022/03/19 02:14:39;;;;;;;107.47;53.42;;;;;;;6.34;61.92;101280.47;5187265;28;20061;-67
2022/03/19 02:17:29;;;;;;;112.22;55.35;;;;;;;6.46;61.86;101280.00;5198199;28;20056;-68
2022/03/19 02:20:19;;;;;;;111.55;54.17;;;;;;;6.58;61.62;101283.91;5205168;28;20068;-68
2022/03/19 02:26:29;;;;;;;103.07;51.58;;;;;;;6.45;61.95;101280.06;5202072;28;20058;-67
2022/03/19 02:29:20;;;;;;;109.97;52.13;;;;;;;6.49;61.55;101258.81;5205105;28;20049;-67
2022/03/19 02:32:10;;;;;;;112.45;54.70;;;;;;;6.59;62.12;101273.31;5205538;28;20219;-68
2022/03/19 02:35:01;;;;;;;114.75;52.83;;;;;;;6.83;60.55;101275.84;5205055;28;20081;-67
2022/03/19 02:37:51;;;;;;;107.72;53.63;;;;;;;6.59;62.03;101270.69;5205407;28;20060;-68
2022/03/19 02:40:41;;;;;;;106.93;52.20;;;;;;;6.63;61.24;101233.66;5205311;28;20511;-67
2022/03/19 02:43:31;;;;;;;103.95;52.20;;;;;;;6.82;60.81;101253.91;5204856;28;20419;-67
2022/03/19 02:46:42;;;;;;;108.72;52.05;;;;;;;6.72;61.00;101259.59;5204990;28;20412;-67
2022/03/19 02:49:33;;;;;;;106.03;53.05;;;;;;;6.70;60.56;101257.06;5205682;28;20060;-67
2022/03/19 02:52:23;;;;;;;106.28;52.17;;;;;;;6.61;61.57;101257.41;5205404;28;20516;-68
2022/03/19 02:55:13;;;;;;;104.80;51.42;;;;;;;6.65;61.04;101261.63;5205318;28;20054;-68
2022/03/19 02:58:04;;;;;;;103.53;51.83;;;;;;;6.70;61.26;101256.19;5203383;28;20107;-67
2022/03/19 03:00:54;;;;;;;103.32;51.22;;;;;;;6.65;61.69;101247.59;5198944;28;20407;-68
2022/03/19 03:03:44;;;;;;;102.75;50.67;;;;;;;6.78;60.67;101254.94;5204970;28;20554;-68
2022/03/19 03:06:36;;;;;;;103.88;51.55;;;;;;;6.98;60.05;101263.78;5202502;28;20049;-68
2022/03/19 03:09:27;;;;;;;105.95;52.13;;;;;;;6.74;60.42;101234.03;5201309;28;20046;-68
2022/03/19 03:12:17;;;;;;;103.90;51.33;;;;;;;6.85;60.43;101263.44;5204995;28;20045;-68
2022/03/19 03:15:08;;;;;;;109.00;52.78;;;;;;;6.88;60.37;101260.69;5204594;28;20462;-68
2022/03/19 03:18:01;;;;;;;98.07;48.50;;;;;;;7.07;59.80;101264.25;5204843;28;20061;-68
2022/03/19 03:20:51;;;;;;;100.28;49.28;;;;;;;6.70;60.94;101256.19;5200878;28;20053;-68
2022/03/19 03:23:41;;;;;;;99.53;50.63;;;;;;;6.76;60.33;101256.81;5203473;28;20063;-68
2022/03/19 03:26:32;;;;;;;100.05;51.92;;;;;;;6.85;60.14;101245.00;5204645;28;20172;-68
2022/03/19 03:29:22;;;;;;;105.88;51.58;;;;;;;6.84;60.53;101248.56;5203899;28;20087;-67
2022/03/19 03:32:12;;;;;;;102.65;50.35;;;;;;;7.12;59.23;101244.72;5204495;28;20056;-68
2022/03/19 03:35:03;;;;;;;104.13;50.95;;;;;;;6.77;60.08;101247.97;5204628;28;20053;-68
2022/03/19 03:37:53;;;;;;;102.03;50.88;;;;;;;7.02;60.20;101249.56;5201749;28;20064;-67
2022/03/19 03:40:44;;;;;;;104.78;52.17;;;;;;;6.70;60.25;101240.38;5204450;28;20061;-68
2022/03/19 03:43:34;;;;;;;105.32;51.95;;;;;;;6.48;61.52;101233.34;5204418;28;20059;-68
2022/03/19 03:46:24;;;;;;;104.43;52.08;;;;;;;6.61;60.37;101244.25;5204058;28;20140;-67
2022/03/19 03:49:14;;;;;;;106.20;50.45;;;;;;;6.66;60.74;101244.06;5204377;28;20124;-67
2022/03/19 03:52:05;;;;;;;104.07;50.95;;;;;;;6.56;60.35;101218.09;5199953;28;20139;-68
2022/03/19 03:54:56;;;;;;;109.45;52.75;;;;;;;6.62;60.40;101222.22;5203966;28;20127;-68
2022/03/19 03:57:46;;;;;;;107.57;52.65;;;;;;;6.52;60.92;101242.88;5204097;28;20107;-68
2022/03/19 04:00:37;;;;;;;112.35;52.65;;;;;;;6.73;59.74;101227.94;5203601;28;20076;-67
2022/03/19 04:03:27;;;;;;;108.30;52.83;;;;;;;6.64;60.64;101243.25;5203920;28;20203;-68
2022/03/19 04:06:16;;;;;;;107.78;51.63;;;;;;;6.37;60.87;101242.63;5198091;28;20136;-68
2022/03/19 04:09:07;;;;;;;104.07;51.97;;;;;;;6.55;60.46;101236.59;5204017;28;20056;-68
2022/03/19 04:11:57;;;;;;;101.30;49.80;;;;;;;6.42;60.46;101246.75;5203613;28;20056;-68
2022/03/19 04:14:47;;;;;;;106.75;52.22;;;;;;;6.25;60.26;101234.28;5203513;28;20053;-67
2022/03/19 04:17:38;;;;;;;103.97;50.42;;;;;;;6.30;61.30;101240.22;5203383;28;20467;-68
2022/03/19 04:20:28;;;;;;;102.97;51.10;;;;;;;6.13;61.83;101229.50;5198061;28;20052;-68
2022/03/19 04:23:18;;;;;;;104.28;50.42;;;;;;;6.02;61.16;101240.44;5199766;28;20461;-67
2022/03/19 04:26:08;;;;;;;107.13;50.97;;;;;;;6.04;60.45;101241.25;5203782;28;20107;-68
2022/03/19 04:28:58;;;;;;;100.05;50.22;;;;;;;5.78;61.45;101236.97;5203451;28;20175;-67
2022/03/19 04:31:48;;;;;;;105.03;52.53;;;;;;;5.92;61.12;101243.47;5201812;28;20143;-68
2022/03/19 04:34:38;;;;;;;101.72;49.58;;;;;;;5.46;62.55;101234.66;5197926;28;20054;-68
2022/03/19 04:37:27;;;;;;;95.07;49.60;;;;;;;5.30;62.71;101245.75;5203326;28;20056;-68
2022/03/19 04:40:18;;;;;;;109.55;51.42;;;;;;;5.42;61.87;101236.56;5202066;28;20092;-68
2022/03/19 04:43:09;;;;;;;111.07;48.70;;;;;;;5.13;62.37;101224.44;5203269;28;20048;-68
2022/03/19 04:45:59;;;;;;;105.88;52.05;;;;;;;5.26;63.05;101230.97;5200572;28;20064;-67
2022/03/19 04:48:50;;;;;;;96.65;48.15;;;;;;;4.87;63.17;101218.34;5203287;28;20064;-67
2022/03/19 04:51:41;;;;;;;101.68;50.17;;;;;;;4.92;63.27;101228.69;5201526;28;20056;-68
2022/03/19 04:54:30;;;;;;;109.53;50.72;;;;;;;4.88;63.78;101234.97;5198723;28;20099;-68
2022/03/19 04:57:20;;;;;;;100.47;49.42;;;;;;;4.80;63.14;101231.75;5202789;28;20065;-69
2022/03/19 05:00:12;;;;;;;105.78;51.53;;;;;;;4.78;63.41;101215.19;5201914;28;20065;-68
2022/03/19 05:03:01;;;;;;;113.90;53.63;;;;;;;5.02;64.33;101218.72;5202631;28;20053;-69
2022/03/19 05:05:52;;;;;;;103.95;51.33;;;;;;;5.20;62.33;101218.09;5201195;28;20052;-69
2022/03/19 05:08:42;;;;;;;109.35;51.88;;;;;;;4.97;63.50;101220.63;5194148;28;20057;-68
2022/03/19 05:11:32;;;;;;;103.82;50.88;;;;;;;4.93;62.94;101219.88;5202731;28;20515;-69
2022/03/19 05:14:23;;;;;;;104.53;49.72;;;;;;;4.83;62.67;101215.88;5202582;28;20207;-69
2022/03/19 05:17:13;;;;;;;105.07;50.55;;;;;;;4.91;63.67;101213.84;5202323;28;20051;-69
2022/03/19 05:20:04;;;;;;;107.22;50.90;;;;;;;4.68;63.11;101196.25;5200176;28;20053;-68
2022/03/19 05:22:54;;;;;;;100.47;49.92;;;;;;;4.74;63.53;101208.31;5200887;28;20073;-69
2022/03/19 05:25:44;;;;;;;108.78;50.95;;;;;;;4.75;62.92;101216.13;5204725;28;20111;-69
2022/03/19 05:28:35;;;;;;;109.22;49.15;;;;;;;4.58;63.54;101211.47;5207065;28;20099;-68
2022/03/19 05:31:45;;;;;;;105.45;48.55;;;;;;;4.40;63.55;101215.56;5204098;28;20044;-69
2022/03/19 05:34:35;;;;;;;100.07;47.15;;;;;;;4.34;63.88;101202.63;5200571;28;20503;-69
2022/03/19 05:37:25;;;;;;;103.38;48.97;;;;;;;4.68;62.03;101212.88;5205300;28;20064;-69
2022/03/19 05:40:16;;;;;;;107.05;51.70;;;;;;;4.53;63.48;101202.84;5208659;28;20126;-69
2022/03/19 05:43:06;;;;;;;112.13;53.20;;;;;;;4.81;63.16;101209.81;5198813;28;20056;-69
2022/03/19 05:45:56;;;;;;;113.90;52.60;;;;;;;4.74;62.82;101208.31;5200235;28;20132;-69
2022/03/19 05:48:47;;;;;;;106.05;50.58;;;;;;;4.68;63.08;101210.22;5201007;28;20053;-69
2022/03/19 05:51:37;;;;;;;114.82;51.20;;;;;;;4.42;63.83;101199.75;5201324;28;20048;-68
2022/03/19 05:54:27;;;;;;;113.78;51.15;;;;;;;4.83;62.93;101198.31;5205307;28;20056;-69
2022/03/19 05:57:18;;;;;;;106.65;51.25;;;;;;;4.57;63.09;101193.97;5206199;28;20119;-68
2022/03/19 06:00:11;;;;;;;112.97;52.33;;;;;;;4.58;64.10;101190.44;5206271;28;20475;-69
2022/03/19 06:03:04;;;;;;;121.43;52.75;;;;;;;4.70;63.98;101211.06;5201458;28;20119;-69
2022/03/19 06:05:56;;;;;;;113.07;51.97;;;;;;;4.72;64.20;101197.84;5208439;28;20415;-69
2022/03/19 06:08:46;;;;;;;113.55;53.50;;;;;;;4.88;63.95;101212.19;5211124;28;20056;-69
2022/03/19 06:11:38;;;;;;;112.57;54.53;;;;;;;5.16;63.14;101193.63;5208938;28;20055;-69
2022/03/19 06:14:28;;;;;;;117.93;52.45;;;;;;;5.51;62.50;101207.28;5211591;28;20052;-69
2022/03/19 06:17:19;;;;;;;112.03;52.53;;;;;;;5.60;62.13;101175.34;5207601;28;20055;-69
2022/03/19 06:20:10;;;;;;;106.93;52.38;;;;;;;5.72;62.06;101202.97;5210545;28;20061;-68
2022/03/19 06:23:00;;;;;;;105.43;51.25;;;;;;;5.84;61.93;101206.91;5207722;28;20515;-68
2022/03/19 06:25:51;;;;;;;110.47;51.17;;;;;;;5.31;63.28;101212.44;5208812;28;20101;-68
2022/03/19 06:28:41;;;;;;;104.70;49.55;;;;;;;5.71;62.06;101217.06;5209127;28;20530;-69
2022/03/19 06:31:31;;;;;;;110.25;51.28;;;;;;;6.15;61.90;101206.59;5209154;28;20407;-69
2022/03/19 06:34:22;;;;;;;95.75;47.17;;;;;;;5.98;61.80;101209.03;5209125;28;20081;-69
2022/03/19 06:37:21;;;;;;;102.30;50.00;;;;;;;6.48;60.50;101214.03;5209181;28;20057;-68
2022/03/19 06:40:12;;;;;;;100.25;49.38;;;;;;;6.65;60.07;101208.91;5209044;28;20056;-68
2022/03/19 06:43:02;;;;;;;101.00;49.20;;;;;;;6.48;60.63;101208.78;5207058;28;20142;-68
2022/03/19 06:45:54;;;;;;;100.68;49.53;;;;;;;6.76;60.34;101211.97;5207389;28;20407;-68
2022/03/19 06:48:46;;;;;;;94.10;45.37;;;;;;;7.06;59.10;101207.16;5207279;28;20698;-68
2022/03/19 06:51:36;;;;;;;95.93;48.83;;;;;;;7.07;59.02;101213.28;5207318;28;20268;-68
2022/03/19 06:54:27;;;;;;;93.05;46.83;;;;;;;6.89;58.96;101204.41;5205718;28;20096;-68
2022/03/19 06:57:17;;;;;;;91.32;45.60;;;;;;;6.62;59.15;101200.28;5207822;28;20487;-69
2022/03/19 07:00:07;;;;;;;92.72;45.42;;;;;;;6.75;59.84;101201.47;5206718;28;20091;-68
2022/03/19 07:02:57;;;;;;;90.88;46.25;;;;;;;6.86;59.24;101186.06;5208686;28;20053;-68
2022/03/19 07:05:47;;;;;;;89.78;44.67;;;;;;;6.58;59.81;101199.56;5207485;28;20099;-68
2022/03/19 07:08:38;;;;;;;94.30;44.67;;;;;;;7.10;58.96;101204.38;5209176;28;20067;-68
2022/03/19 07:11:28;;;;;;;90.20;45.17;;;;;;;6.92;58.19;101198.13;5210303;28;20084;-68
2022/03/19 07:14:18;;;;;;;89.15;45.33;;;;;;;6.85;58.87;101176.44;5209647;28;20198;-68
2022/03/19 07:17:08;;;;;;;89.85;43.08;;;;;;;6.80;57.93;101197.72;5207880;28;20195;-69
2022/03/19 07:19:59;;;;;;;85.15;44.65;;;;;;;7.50;57.68;101193.75;5205519;28;20057;-68
2022/03/19 07:22:50;;;;;;;89.45;44.03;;;;;;;7.64;57.29;101195.75;5207675;28;20507;-68
2022/03/19 07:25:40;;;;;;;82.55;41.88;;;;;;;7.26;57.39;101194.88;5206051;28;20057;-68
2022/03/19 07:28:30;;;;;;;82.60;40.97;;;;;;;6.91;57.21;101189.34;5208460;28;20049;-68
2022/03/19 07:31:22;;;;;;;84.50;43.03;;;;;;;7.47;56.87;101185.97;5208447;28;20053;-68
2022/03/19 07:34:13;;;;;;;75.50;39.92;;;;;;;7.13;56.69;101191.91;5206036;28;20123;-68
2022/03/19 07:37:03;;;;;;;73.30;37.67;;;;;;;8.19;54.52;101176.41;5208461;28;20581;-68
2022/03/19 07:39:54;;;;;;;75.22;39.22;;;;;;;8.65;52.25;101175.00;5207256;28;20118;-68
2022/03/19 07:42:44;;;;;;;82.90;40.00;;;;;;;8.39;54.51;101189.53;5205786;28;20064;-68
2022/03/19 07:45:38;;;;;;;73.82;37.67;;;;;;;9.12;50.38;101187.56;5189366;28;21804;-68
2022/03/19 07:48:28;;;;;;;68.60;36.03;;;;;;;8.54;52.06;101179.13;5205952;28;20056;-68
2022/03/19 07:51:18;;;;;;;67.90;35.63;;;;;;;9.09;49.84;101165.69;5204870;28;20049;-68
2022/03/19 07:54:08;;;;;;;69.45;35.67;;;;;;;8.21;52.11;101171.91;5203034;28;20060;-68
2022/03/19 07:56:58;;;;;;;69.30;35.65;;;;;;;9.09;49.79;101160.41;5206511;28;20060;-69
2022/03/19 07:59:49;;;;;;;61.70;33.08;;;;;;;9.13;48.92;101151.34;5216429;28;20052;-70
2022/03/19 08:02:40;;;;;;;65.68;34.25;;;;;;;9.82;47.79;101171.44;5203969;28;20049;-66
2022/03/19 08:05:30;;;;;;;62.40;35.20;;;;;;;10.20;47.38;101171.91;5212602;28;20045;-67
2022/03/19 08:08:20;;;;;;;64.93;35.40;;;;;;;10.58;47.07;101172.34;5209758;28;20522;-68
2022/03/19 08:11:10;;;;;;;66.22;34.40;;;;;;;10.13;47.38;101165.22;5203655;28;20064;-68
2022/03/19 08:14:01;;;;;;;65.40;33.75;;;;;;;9.89;48.34;101164.84;5201782;28;20111;-67
2022/03/19 08:16:53;;;;;;;67.15;35.38;;;;;;;10.12;47.54;101153.78;5202036;28;20512;-67
2022/03/19 08:19:43;;;;;;;73.10;34.97;;;;;;;10.06;47.08;101145.34;5203757;28;20056;-68
2022/03/19 08:22:52;;;;;;;66.57;34.85;;;;;;;11.05;46.37;101158.03;5203201;28;20052;-67
2022/03/19 08:25:43;;;;;;;66.97;35.88;;;;;;;11.68;45.15;101154.09;5203336;28;20148;-68
2022/03/19 08:28:33;;;;;;;60.00;33.45;;;;;;;11.82;44.06;101147.91;5200890;28;20448;-67
2022/03/19 08:31:24;;;;;;;66.95;35.60;;;;;;;11.64;45.21;101141.09;5204332;28;20053;-67
2022/03/19 08:34:14;;;;;;;63.55;36.78;;;;;;;12.46;44.34;101142.84;5214544;28;20053;-66
2022/03/19 08:37:04;;;;;;;64.82;35.60;;;;;;;11.64;43.29;101138.44;5200310;28;20099;-67
2022/03/19 08:43:04;;;;;;;55.50;33.38;;;;;;;11.24;45.41;101111.75;5204598;28;20052;-70
2022/03/19 08:45:54;;;;;;;68.43;36.05;;;;;;;12.31;43.45;101120.75;5204824;28;20104;-70
2022/03/19 08:48:44;;;;;;;60.92;34.20;;;;;;;12.70;43.55;101138.50;5200936;28;20053;-70
2022/03/19 08:51:41;;;;;;;63.85;33.65;;;;;;;13.33;41.84;101131.47;5187701;28;20041;-70
2022/03/19 08:54:31;;;;;;;58.30;33.00;;;;;;;13.34;41.11;101127.88;5202544;28;20069;-70
2022/03/19 08:57:21;;;;;;;59.47;33.03;;;;;;;11.44;43.62;101129.94;5206982;28;20511;-69
2022/03/19 09:00:13;;;;;;;57.10;32.75;;;;;;;13.45;41.77;101124.44;5201866;28;20053;-69
2022/03/19 09:03:06;;;;;;;57.08;33.95;;;;;;;13.54;41.34;101126.44;5202266;28;20072;-70
2022/03/19 09:05:56;;;;;;;61.85;35.22;;;;;;;13.57;41.00;101118.19;5195827;28;20053;-68
2022/03/19 09:08:49;;;;;;;60.20;35.85;;;;;;;12.91;42.08;101119.31;5202509;28;20053;-69
2022/03/19 09:11:39;;;;;;;61.03;34.92;;;;;;;14.29;40.65;101114.69;5208960;28;20053;-69
2022/03/19 09:14:30;;;;;;;61.22;34.63;;;;;;;13.37;40.88;101105.47;5201337;28;20064;-71
2022/03/19 09:17:20;;;;;;;59.78;35.38;;;;;;;13.19;39.89;101101.44;5208630;28;20187;-68
2022/03/19 09:20:11;;;;;;;57.47;34.60;;;;;;;13.76;41.55;101099.03;5203783;28;20091;-69
2022/03/19 09:23:03;;;;;;;59.95;35.40;;;;;;;14.93;40.05;101096.44;5200877;28;20142;-68
2022/03/19 09:25:54;;;;;;;63.00;36.35;;;;;;;11.85;43.62;101099.88;5200476;28;20559;-69
2022/03/19 09:28:48;;;;;;;61.28;34.75;;;;;;;11.86;44.11;101092.78;5204592;28;20060;-68
2022/03/19 09:31:38;;;;;;;61.47;34.78;;;;;;;13.28;43.61;101085.69;5201988;28;20103;-69
2022/03/19 09:34:28;;;;;;;60.35;35.10;;;;;;;13.90;39.69;101092.69;5205911;28;20061;-69
2022/03/19 09:37:18;;;;;;;65.40;36.88;;;;;;;13.94;40.16;101080.84;5214319;28;20056;-69
2022/03/19 09:40:09;;;;;;;61.38;36.47;;;;;;;14.63;38.98;101080.94;5195108;28;20053;-68
2022/03/19 09:42:59;;;;;;;62.75;35.85;;;;;;;14.22;39.47;101070.75;5201946;28;20112;-69
2022/03/19 09:45:49;;;;;;;71.18;37.42;;;;;;;13.77;43.03;101065.22;5201273;28;20058;-67
2022/03/19 09:48:40;;;;;;;66.07;37.10;;;;;;;13.92;41.21;101052.59;5200127;28;20503;-67
2022/03/19 09:51:33;;;;;;;60.88;35.72;;;;;;;14.43;40.81;101047.75;5215885;28;20084;-67
2022/03/19 09:54:23;;;;;;;55.60;36.47;;;;;;;14.74;39.74;101042.75;5197447;28;20101;-68
2022/03/19 09:57:13;;;;;;;61.03;34.80;;;;;;;15.58;37.56;101043.13;5209510;28;20411;-70
2022/03/19 10:00:03;;;;;;;56.78;35.15;;;;;;;14.35;39.89;101034.16;5204095;28;20099;-71
2022/03/19 10:02:55;;;;;;;55.30;34.58;;;;;;;14.99;38.82;101028.28;5211835;28;20044;-70
2022/03/19 10:08:56;;;;;;;59.53;34.90;;;;;;;15.17;37.78;101009.94;5201484;28;20551;-70
2022/03/19 10:11:51;;;;;;;64.13;37.70;;;;;;;15.03;37.61;100992.31;5200211;28;20111;-68
2022/03/19 10:14:45;;;;;;;65.00;36.30;;;;;;;15.33;37.88;100982.78;5200804;28;20236;-68
2022/03/19 10:17:37;;;;;;;63.25;34.83;;;;;;;15.48;37.06;100998.44;5200652;28;20056;-67
2022/03/19 10:20:28;;;;;;;55.50;33.17;;;;;;;14.98;36.59;100989.19;5202063;28;20060;-69
2022/03/19 10:23:41;;;;;;;61.30;33.80;;;;;;;14.13;38.14;100983.41;5210745;28;20049;-67
2022/03/19 10:26:34;;;;;;;61.37;33.97;;;;;;;13.72;39.09;100977.59;5209880;28;20048;-67
2022/03/19 10:29:30;;;;;;;52.10;31.85;;;;;;;14.19;38.53;100977.59;5194678;28;20160;-67
2022/03/19 10:32:20;;;;;;;51.33;27.85;;;;;;;14.61;35.81;100964.59;5200421;28;20103;-67
2022/03/19 10:35:35;;;;;;;47.58;26.13;;;;;;;13.90;37.24;100978.03;5207779;28;20056;-66
2022/03/19 10:38:26;;;;;;;39.03;22.20;;;;;;;13.60;38.12;100974.03;5199403;28;20064;-66
2022/03/19 10:41:17;;;;;;;39.58;22.88;;;;;;;14.42;37.91;100967.81;5204105;28;20061;-67
2022/03/19 10:44:19;;;;;;;40.53;24.52;;;;;;;13.94;36.42;100955.50;5204620;28;20044;-66
2022/03/19 10:47:10;;;;;;;44.55;23.02;;;;;;;14.08;35.90;100952.63;5203743;28;20183;-66
2022/03/19 10:50:00;;;;;;;38.30;21.33;;;;;;;13.93;36.55;100927.13;5204774;28;20065;-69
2022/03/19 10:52:52;;;;;;;37.47;20.60;;;;;;;14.04;37.93;100935.16;5204776;28;20699;-66
2022/03/19 10:55:42;;;;;;;34.13;19.17;;;;;;;14.41;36.11;100915.41;5204587;28;20080;-68
2022/03/19 10:58:33;;;;;;;42.63;23.48;;;;;;;14.20;35.06;100940.13;5204797;28;20068;-66
2022/03/19 11:01:29;;;;;;;37.88;22.55;;;;;;;13.93;36.91;100924.44;5199997;28;20056;-67
2022/03/19 11:04:21;;;;;;;35.20;19.05;;;;;;;14.19;35.30;100916.25;5203355;28;20425;-67
2022/03/19 11:07:12;;;;;;;33.13;18.33;;;;;;;14.96;35.43;100916.34;5202502;28;20144;-67
2022/03/19 11:10:06;;;;;;;30.30;17.13;;;;;;;14.08;35.94;100915.28;5204598;28;20810;-67
2022/03/19 11:12:58;;;;;;;33.58;19.65;;;;;;;14.14;37.92;100902.41;5204132;28;20546;-67
2022/03/19 11:15:54;;;;;;;24.60;15.63;;;;;;;13.50;36.29;100898.41;5191527;28;20056;-67
2022/03/19 11:18:46;;;;;;;25.55;14.05;;;;;;;13.20;36.04;100874.03;5204567;28;20134;-67
2022/03/19 11:21:37;;;;;;;22.05;12.10;;;;;;;13.74;36.10;100890.38;5202686;28;20049;-66
2022/03/19 11:24:30;;;;;;;25.13;13.30;;;;;;;13.61;37.10;100889.63;5203890;28;20058;-66
2022/03/19 11:27:21;;;;;;;25.73;14.35;;;;;;;13.28;36.53;100874.38;5203884;28;20412;-67
2022/03/19 11:30:23;;;;;;;24.65;13.57;;;;;;;14.22;36.69;100873.31;5201727;28;20195;-67
2022/03/19 11:33:17;;;;;;;27.40;14.38;;;;;;;13.79;37.21;100866.84;5204184;28;20142;-67
2022/03/19 11:36:10;;;;;;;31.60;14.52;;;;;;;14.22;36.66;100868.00;5198669;28;20064;-67
2022/03/19 11:39:00;;;;;;;21.98;13.32;;;;;;;13.65;36.88;100858.25;5204119;28;20064;-67
2022/03/19 11:41:51;;;;;;;24.60;13.85;;;;;;;11.75;38.44;100852.47;5203879;28;20107;-66
2022/03/19 11:44:49;;;;;;;24.20;13.65;;;;;;;11.81;39.10;100861.78;5200764;28;20146;-67
2022/03/19 11:47:39;;;;;;;26.73;13.80;;;;;;;13.54;36.86;100849.25;5203467;28;20092;-67
2022/03/19 11:50:31;;;;;;;28.10;14.73;;;;;;;14.06;36.80;100847.84;5202681;28;20057;-68
2022/03/19 11:53:24;;;;;;;28.40;15.05;;;;;;;13.26;37.01;100849.63;5203999;28;20140;-66
2022/03/19 11:56:19;;;;;;;31.83;15.93;;;;;;;13.81;36.40;100829.44;5203666;28;20136;-67
2022/03/19 11:59:15;;;;;;;30.48;14.27;;;;;;;14.45;36.56;100826.97;5202968;28;20651;-68
2022/03/19 12:02:06;;;;;;;58.63;16.63;;;;;;;12.82;36.27;100821.84;5203729;28;20061;-67
2022/03/19 12:04:57;;;;;;;151.90;22.02;;;;;;;12.03;37.56;100823.13;5200162;28;20718;-67
2022/03/19 12:07:47;;;;;;;60.97;15.52;;;;;;;11.01;37.67;100816.75;5203644;28;20632;-68
2022/03/19 12:11:01;;;;;;;29.35;12.48;;;;;;;11.85;37.00;100810.16;5199705;28;20063;-67
2022/03/19 12:13:51;;;;;;;47.88;15.18;;;;;;;11.80;37.49;100803.44;5200911;28;20052;-68
2022/03/19 12:16:44;;;;;;;22.80;11.75;;;;;;;12.87;36.32;100793.88;5202664;28;20057;-68
2022/03/19 12:20:07;;;;;;;24.50;11.85;;;;;;;12.78;35.33;100781.28;5203888;28;20064;-70
2022/03/19 12:22:57;;;;;;;94.93;15.63;;;;;;;13.62;35.98;100788.19;5199831;28;20107;-69
2022/03/19 12:26:02;;;;;;;21.08;10.82;;;;;;;13.95;35.11;100773.19;5202896;28;20073;-69
2022/03/19 12:29:00;;;;;;;21.98;10.60;;;;;;;12.96;35.58;100771.06;5201038;28;20096;-68
2022/03/19 12:31:52;;;;;;;19.75;8.85;;;;;;;11.17;37.21;100747.53;5203562;28;20103;-69
2022/03/19 12:34:42;;;;;;;16.35;8.65;;;;;;;11.52;36.12;100766.38;5203372;28;20052;-69
2022/03/19 12:37:49;;;;;;;23.55;10.20;;;;;;;11.31;36.75;100762.53;5202136;28;20052;-69
2022/03/19 12:43:47;;;;;;;14.90;7.60;;;;;;;11.61;34.33;100737.44;5201692;28;20853;-71
2022/03/19 12:46:39;;;;;;;14.70;7.68;;;;;;;12.10;35.72;100732.16;5206455;28;20060;-71
2022/03/19 12:49:31;;;;;;;13.52;6.82;;;;;;;12.35;33.44;100703.75;5213279;28;20060;-70
2022/03/19 12:52:22;;;;;;;14.27;7.07;;;;;;;11.47;31.25;100683.47;5197463;28;20059;-68
2022/03/19 12:55:20;;;;;;;18.17;7.28;;;;;;;12.06;33.24;100698.78;5199616;28;20052;-69
2022/03/19 12:58:10;;;;;;;13.80;7.28;;;;;;;11.97;33.98;100710.94;5203820;28;20419;-68
2022/03/19 13:01:00;;;;;;;12.18;6.13;;;;;;;12.77;34.25;100706.84;5205402;28;20068;-68
2022/03/19 13:03:55;;;;;;;13.90;6.38;;;;;;;13.25;33.20;100707.63;5200098;28;20051;-69
2022/03/19 13:06:45;;;;;;;13.43;6.30;;;;;;;13.37;34.65;100711.13;5202978;28;20503;-68
2022/03/19 13:09:39;;;;;;;16.92;6.78;;;;;;;13.46;34.22;100693.56;5204667;28;20108;-68
2022/03/19 13:12:29;;;;;;;16.25;6.68;;;;;;;13.41;31.87;100696.63;5212534;28;20102;-70